createdAt,value
2023-03-20T00:02:21.907Z,8.70
2023-03-20T00:04:50.511Z,9.60
2023-03-20T00:07:18.609Z,10.40
2023-03-20T00:09:48.615Z,9.10
2023-03-20T00:12:20.944Z,9.50
2023-03-20T00:14:50.904Z,10.20
2023-03-20T00:17:21.149Z,9.30
2023-03-20T00:19:56.103Z,9.60
2023-03-20T00:22:24.228Z,9.60
2023-03-20T00:24:52.239Z,9.20
2023-03-20T00:27:37.545Z,8.80
2023-03-20T00:30:20.841Z,10.50
2023-03-20T00:32:50.476Z,8.40
2023-03-20T00:35:30.012Z,10.20
2023-03-20T00:38:03.705Z,9.80
2023-03-20T00:40:31.996Z,8.30
2023-03-20T00:43:02.250Z,9.00
2023-03-20T00:45:32.165Z,10.00
2023-03-20T00:48:01.852Z,9.30
2023-03-20T00:50:30.905Z,9.40
2023-03-20T00:52:59.407Z,9.40
2023-03-20T00:55:30.047Z,10.20
2023-03-20T00:58:01.201Z,8.70
2023-03-20T01:00:40.516Z,9.50
2023-03-20T01:03:12.405Z,8.90
2023-03-20T01:05:40.926Z,8.90
2023-03-20T01:08:14.967Z,8.70
2023-03-20T01:10:43.782Z,8.90
2023-03-20T01:13:20.145Z,10.10
2023-03-20T01:15:49.172Z,8.90
2023-03-20T01:18:17.505Z,11.00
2023-03-20T01:20:46.212Z,9.40
2023-03-20T01:23:14.840Z,8.90
2023-03-20T01:25:42.844Z,9.60
2023-03-20T01:28:18.773Z,10.10
2023-03-20T01:30:46.943Z,9.20
2023-03-20T01:33:34.849Z,9.40
2023-03-20T01:36:03.392Z,10.00
2023-03-20T01:38:32.021Z,10.70
2023-03-20T01:41:10.254Z,9.40
2023-03-20T01:43:39.279Z,10.60
2023-03-20T01:46:19.523Z,9.40
2023-03-20T01:48:50.700Z,9.70
2023-03-20T01:51:40.831Z,10.40
2023-03-20T01:54:13.467Z,9.90
2023-03-20T01:57:10.992Z,9.80
2023-03-20T01:59:43.835Z,11.60
2023-03-20T02:02:17.738Z,11.10
2023-03-20T02:04:46.845Z,11.70
2023-03-20T02:07:18.688Z,11.30
2023-03-20T02:10:01.941Z,10.50
2023-03-20T02:12:45.685Z,13.20
2023-03-20T02:15:14.635Z,13.00
2023-03-20T02:18:01.843Z,11.40
2023-03-20T02:20:52.104Z,12.70
2023-03-20T02:23:47.819Z,12.10
2023-03-20T02:26:31.791Z,12.70
2023-03-20T02:29:23.763Z,14.90
2023-03-20T02:32:12.083Z,12.60
2023-03-20T02:35:02.864Z,12.40
2023-03-20T02:37:53.521Z,13.00
2023-03-20T02:40:39.113Z,13.20
2023-03-20T02:43:31.617Z,13.80
2023-03-20T02:46:04.630Z,12.50
2023-03-20T02:48:55.738Z,13.20
2023-03-20T02:51:45.901Z,14.70
2023-03-20T02:54:53.665Z,13.30
2023-03-20T02:57:31.877Z,13.90
2023-03-20T03:00:09.874Z,16.40
2023-03-20T03:02:43.364Z,14.00
2023-03-20T03:05:17.448Z,15.10
2023-03-20T03:07:50.058Z,13.10
2023-03-20T03:10:22.402Z,14.70
2023-03-20T03:12:52.640Z,14.70
2023-03-20T03:15:28.225Z,14.00
2023-03-20T03:17:58.254Z,12.80
2023-03-20T03:20:31.511Z,14.40
2023-03-20T03:23:00.556Z,15.30
2023-03-20T03:25:30.797Z,14.30
2023-03-20T03:28:08.882Z,14.80
2023-03-20T03:30:38.154Z,15.60
2023-03-20T03:33:25.634Z,16.50
2023-03-20T03:35:56.704Z,15.90
2023-03-20T03:38:30.427Z,16.60
2023-03-20T03:41:19.318Z,14.30
2023-03-20T03:44:12.956Z,14.10
2023-03-20T03:47:09.571Z,14.80
2023-03-20T03:49:57.485Z,15.30
2023-03-20T03:52:29.432Z,14.10
2023-03-20T03:55:02.614Z,16.10
2023-03-20T03:57:42.394Z,14.40
2023-03-20T04:00:17.816Z,14.30
2023-03-20T04:02:51.778Z,14.80
2023-03-20T04:05:31.557Z,15.90
2023-03-20T04:08:02.687Z,15.00
2023-03-20T04:10:32.667Z,16.10
2023-03-20T04:13:04.798Z,14.70
2023-03-20T04:15:36.558Z,14.50
2023-03-20T04:18:09.240Z,14.40
2023-03-20T04:20:42.532Z,15.30
2023-03-20T04:23:13.517Z,15.30
2023-03-20T04:25:46.684Z,13.80
2023-03-20T04:28:19.573Z,14.50
2023-03-20T04:31:15.210Z,13.60
2023-03-20T04:33:55.502Z,14.10
2023-03-20T04:36:45.539Z,14.40
2023-03-20T04:39:18.522Z,15.00
2023-03-20T04:41:49.611Z,14.40
2023-03-20T04:51:54.929Z,14.30
2023-03-20T04:54:36.406Z,12.90
2023-03-20T04:57:05.143Z,15.70
2023-03-20T04:59:34.241Z,14.30
2023-03-20T05:02:06.979Z,21.50
2023-03-20T05:04:37.304Z,17.90
2023-03-20T05:07:06.097Z,17.40
2023-03-20T05:09:42.246Z,16.50
2023-03-20T05:12:10.933Z,15.40
2023-03-20T05:15:01.433Z,17.50
2023-03-20T05:17:51.715Z,18.10
2023-03-20T05:20:41.917Z,16.70
2023-03-20T05:23:29.346Z,15.30
2023-03-20T05:26:16.679Z,15.40
2023-03-20T05:29:14.432Z,16.20
2023-03-20T05:32:02.400Z,15.30
2023-03-20T05:34:42.121Z,15.00
2023-03-20T05:37:20.873Z,16.10
2023-03-20T05:40:13.477Z,17.40
2023-03-20T05:42:56.918Z,16.00
2023-03-20T05:45:43.012Z,15.30
2023-03-20T05:48:34.742Z,17.40
2023-03-20T05:51:27.931Z,14.40
2023-03-20T05:54:02.189Z,15.20
2023-03-20T05:56:42.552Z,15.70
2023-03-20T06:02:01.484Z,13.40
2023-03-20T06:04:37.366Z,14.40
2023-03-20T06:07:18.083Z,15.10
2023-03-20T06:09:51.091Z,15.50
2023-03-20T06:12:19.967Z,16.40
2023-03-20T06:14:48.777Z,16.10
2023-03-20T06:17:20.534Z,15.30
2023-03-20T06:19:54.319Z,16.40
2023-03-20T06:22:23.834Z,16.70
2023-03-20T06:24:56.862Z,17.50
2023-03-20T06:27:31.596Z,17.50
2023-03-20T06:30:01.331Z,19.10
2023-03-20T06:32:34.296Z,16.60
2023-03-20T06:35:05.996Z,17.10
2023-03-20T06:37:36.750Z,16.50
2023-03-20T06:40:12.923Z,15.40
2023-03-20T06:42:42.351Z,15.00
2023-03-20T06:45:12.454Z,15.20
2023-03-20T06:48:08.444Z,15.30
2023-03-20T06:53:07.101Z,15.50
2023-03-20T06:56:05.942Z,19.00
2023-03-20T06:58:34.628Z,15.40
2023-03-20T07:01:09.076Z,18.40
2023-03-20T07:03:39.247Z,15.20
2023-03-20T07:06:09.742Z,15.80
2023-03-20T07:08:40.910Z,15.10
2023-03-20T07:11:10.454Z,14.60
2023-03-20T07:13:39.888Z,14.30
2023-03-20T07:16:46.485Z,14.20
2023-03-20T07:19:38.123Z,14.80
2023-03-20T07:22:42.154Z,15.20
2023-03-20T07:25:35.346Z,13.40
2023-03-20T07:28:10.678Z,13.40
2023-03-20T07:30:42.521Z,11.30
2023-03-20T07:33:11.773Z,12.40
2023-03-20T07:35:41.659Z,13.90
2023-03-20T07:38:10.039Z,11.30
2023-03-20T07:40:46.764Z,11.70
2023-03-20T07:43:18.059Z,12.80
2023-03-20T07:46:14.203Z,11.20
2023-03-20T07:48:42.444Z,13.00
2023-03-20T07:51:10.862Z,13.70
2023-03-20T07:53:41.286Z,12.70
2023-03-20T07:56:11.180Z,12.10
2023-03-20T07:58:39.512Z,11.90
2023-03-20T08:01:08.608Z,10.60
2023-03-20T08:03:38.856Z,11.30
2023-03-20T08:06:13.705Z,12.00
2023-03-20T08:08:43.317Z,9.60
2023-03-20T08:11:12.146Z,10.50
2023-03-20T08:13:40.909Z,10.90
2023-03-20T08:16:09.817Z,11.30
2023-03-20T08:18:44.828Z,11.80
2023-03-20T08:21:13.567Z,11.00
2023-03-20T08:23:41.656Z,11.10
2023-03-20T08:26:16.680Z,11.30
2023-03-20T08:28:47.880Z,9.40
2023-03-20T08:31:17.991Z,10.60
2023-03-20T08:33:46.630Z,8.50
2023-03-20T08:36:16.084Z,9.20
2023-03-20T08:38:49.633Z,9.20
2023-03-20T08:41:18.377Z,10.20
2023-03-20T08:43:46.300Z,8.90
2023-03-20T08:46:15.198Z,9.30
2023-03-20T08:48:44.110Z,9.10
2023-03-20T08:51:14.263Z,12.40
2023-03-20T08:53:42.740Z,11.10
2023-03-20T08:56:10.994Z,9.80
2023-03-20T08:58:39.889Z,9.10
2023-03-20T09:01:09.440Z,9.50
2023-03-20T09:03:38.217Z,8.60
2023-03-20T09:06:07.653Z,8.80
2023-03-20T09:08:36.388Z,8.70
2023-03-20T09:11:07.224Z,8.70
2023-03-20T09:13:36.607Z,8.50
2023-03-20T09:16:04.964Z,9.40
2023-03-20T09:18:34.022Z,9.20
2023-03-20T09:21:02.469Z,9.70
2023-03-20T09:23:32.020Z,9.10
2023-03-20T09:25:59.998Z,9.00
2023-03-20T09:28:28.353Z,8.70
2023-03-20T09:30:58.065Z,15.20
2023-03-20T09:33:27.127Z,27.20
2023-03-20T09:35:55.644Z,10.30
2023-03-20T09:38:24.486Z,9.90
2023-03-20T09:41:03.248Z,9.90
2023-03-20T09:43:51.949Z,9.10
2023-03-20T09:46:33.725Z,9.00
2023-03-20T09:49:05.065Z,8.20
2023-03-20T09:51:40.537Z,8.10
2023-03-20T09:54:17.756Z,8.20
2023-03-20T09:56:47.211Z,8.40
2023-03-20T09:59:16.548Z,8.10
2023-03-20T10:01:56.536Z,8.60
2023-03-20T10:04:26.938Z,9.90
2023-03-20T10:06:56.976Z,7.70
2023-03-20T10:09:27.080Z,8.90
2023-03-20T10:12:20.958Z,8.80
2023-03-20T10:15:12.218Z,9.00
2023-03-20T10:18:02.843Z,9.90
2023-03-20T10:20:36.463Z,9.20
2023-03-20T10:23:16.791Z,8.50
2023-03-20T10:25:51.501Z,8.50
2023-03-20T10:28:23.242Z,7.70
2023-03-20T10:31:04.646Z,7.60
2023-03-20T10:33:51.320Z,8.30
2023-03-20T10:36:39.354Z,8.10
2023-03-20T10:39:30.013Z,8.20
2023-03-20T10:42:00.750Z,8.10
2023-03-20T10:44:37.791Z,8.30
2023-03-20T10:47:09.107Z,8.10
2023-03-20T10:49:50.567Z,8.40
2023-03-20T10:52:23.088Z,10.40
2023-03-20T10:54:57.030Z,8.30
2023-03-20T10:57:27.756Z,8.80
2023-03-20T10:59:56.770Z,8.30
2023-03-20T11:02:28.893Z,8.50
2023-03-20T11:04:58.396Z,10.10
2023-03-20T11:07:28.430Z,11.70
2023-03-20T11:10:06.546Z,9.00
2023-03-20T11:12:39.214Z,9.50
2023-03-20T11:15:20.804Z,8.70
2023-03-20T11:18:04.232Z,9.10
2023-03-20T11:20:38.869Z,11.00
2023-03-20T11:23:08.275Z,9.20
2023-03-20T11:25:46.992Z,9.50
2023-03-20T11:28:25.942Z,9.70
2023-03-20T11:31:05.881Z,9.20
2023-03-20T11:33:37.917Z,8.20
2023-03-20T11:36:22.070Z,8.30
2023-03-20T11:38:51.615Z,8.20
2023-03-20T11:41:25.175Z,8.00
2023-03-20T11:43:53.685Z,7.30
2023-03-20T11:46:23.458Z,7.40
2023-03-20T11:49:04.919Z,7.80
2023-03-20T11:54:15.974Z,9.40
2023-03-20T11:56:59.733Z,7.90
2023-03-20T12:02:05.269Z,7.70
2023-03-20T12:04:38.033Z,8.50
2023-03-20T12:07:27.012Z,6.90
2023-03-20T12:10:01.763Z,11.00
2023-03-20T12:12:52.742Z,14.40
2023-03-20T12:15:52.349Z,14.30
2023-03-20T12:18:41.299Z,10.70
2023-03-20T12:21:59.202Z,11.90
2023-03-20T12:24:46.390Z,10.40
2023-03-20T12:27:18.704Z,8.10
2023-03-20T12:29:48.981Z,8.60
2023-03-20T12:32:31.723Z,8.10
2023-03-20T12:35:02.947Z,11.00
2023-03-20T12:37:32.578Z,8.90
2023-03-20T12:40:01.006Z,24.50
2023-03-20T12:42:57.587Z,11.80
2023-03-20T12:45:31.676Z,9.10
2023-03-20T12:48:22.416Z,9.10
2023-03-20T12:51:06.035Z,9.90
2023-03-20T12:53:41.187Z,8.70
2023-03-20T12:56:32.742Z,8.30
2023-03-20T12:59:06.895Z,7.90
2023-03-20T13:01:53.585Z,8.90
2023-03-20T13:04:37.238Z,7.80
2023-03-20T13:07:12.235Z,9.00
2023-03-20T13:09:58.887Z,9.50
2023-03-20T13:12:37.212Z,8.10
2023-03-20T13:15:17.971Z,9.20
2023-03-20T13:17:48.397Z,9.10
2023-03-20T13:20:19.650Z,10.00
2023-03-20T13:23:19.448Z,9.80
2023-03-20T13:26:25.886Z,9.30
2023-03-20T13:29:33.936Z,9.50
2023-03-20T13:32:08.381Z,9.20
2023-03-20T13:34:59.711Z,8.60
2023-03-20T13:40:24.290Z,8.10
2023-03-20T13:42:58.815Z,8.80
2023-03-20T13:45:38.869Z,8.00
2023-03-20T13:48:30.501Z,9.00
2023-03-20T13:51:06.375Z,10.10
2023-03-20T13:53:41.894Z,8.50
2023-03-20T13:56:29.014Z,9.80
2023-03-20T13:59:15.941Z,9.90
2023-03-20T14:08:30.758Z,11.50
2023-03-20T14:11:32.926Z,10.70
2023-03-20T14:14:15.428Z,9.20
2023-03-20T14:16:44.821Z,8.70
2023-03-20T14:19:21.106Z,9.40
2023-03-20T14:21:50.589Z,8.60
2023-03-20T14:24:20.523Z,10.00
2023-03-20T14:26:51.375Z,11.90
2023-03-20T14:29:41.332Z,9.90
2023-03-20T14:32:15.956Z,9.60
2023-03-20T14:35:00.945Z,11.40
2023-03-20T14:37:38.537Z,12.50
2023-03-20T14:40:20.948Z,11.70
2023-03-20T14:42:57.853Z,11.30
2023-03-20T14:45:28.845Z,12.20
2023-03-20T14:48:26.589Z,11.60
2023-03-20T14:51:13.530Z,11.20
2023-03-20T14:53:41.879Z,11.80
2023-03-20T14:56:12.436Z,10.30
2023-03-20T14:58:49.341Z,10.50
2023-03-20T15:01:21.884Z,10.60
2023-03-20T15:04:10.469Z,10.80
2023-03-20T15:06:47.900Z,18.40
2023-03-20T15:09:16.853Z,13.70
2023-03-20T15:11:45.314Z,11.40
2023-03-20T15:14:23.214Z,12.20
2023-03-20T15:16:57.493Z,11.60
2023-03-20T15:19:25.920Z,11.40
2023-03-20T15:21:55.544Z,11.50
2023-03-20T15:24:28.921Z,11.30
2023-03-20T15:27:00.348Z,11.30
2023-03-20T15:29:29.796Z,18.20
2023-03-20T15:32:12.751Z,16.30
2023-03-20T15:34:42.948Z,13.00
2023-03-20T15:37:16.945Z,13.00
2023-03-20T15:39:52.264Z,12.10
2023-03-20T15:42:21.901Z,12.90
2023-03-20T15:44:52.108Z,13.40
2023-03-20T15:47:22.656Z,16.70
2023-03-20T15:49:58.671Z,14.50
2023-03-20T15:52:30.808Z,15.40
2023-03-20T15:55:06.867Z,24.10
2023-03-20T15:57:39.513Z,34.60
2023-03-20T16:00:27.385Z,32.10
2023-03-20T16:02:55.504Z,25.70
2023-03-20T16:05:26.756Z,23.90
2023-03-20T16:10:38.201Z,20.80
2023-03-20T16:13:07.572Z,21.20
2023-03-20T16:15:35.925Z,22.10
2023-03-20T16:18:04.776Z,19.40
2023-03-20T16:20:39.083Z,20.90
2023-03-20T16:23:08.347Z,18.40
2023-03-20T16:25:36.775Z,18.00
2023-03-20T16:28:07.373Z,18.40
2023-03-20T16:30:36.919Z,26.10
2023-03-20T16:33:11.258Z,24.30
2023-03-20T16:35:48.650Z,21.60
2023-03-20T16:38:29.397Z,21.50
2023-03-20T16:41:28.553Z,46.00
2023-03-20T16:43:57.741Z,44.80
2023-03-20T16:46:27.513Z,36.80
2023-03-20T16:49:13.939Z,34.60
2023-03-20T16:51:43.368Z,45.90
2023-03-20T16:54:18.998Z,48.70
2023-03-20T16:56:52.290Z,44.80
2023-03-20T16:59:20.441Z,41.70
2023-03-20T17:01:51.837Z,36.60
2023-03-20T17:04:24.364Z,48.30
2023-03-20T17:06:59.544Z,36.90
2023-03-20T17:12:03.524Z,26.90
2023-03-20T17:14:32.360Z,27.10
2023-03-20T17:17:00.879Z,26.10
2023-03-20T17:19:29.541Z,31.30
2023-03-20T17:21:59.914Z,49.10
2023-03-20T17:24:28.052Z,100.50
2023-03-20T17:26:57.331Z,106.40
2023-03-20T17:29:25.923Z,94.90
2023-03-20T17:31:54.457Z,80.70
2023-03-20T17:34:22.816Z,75.90
2023-03-20T17:36:51.151Z,74.50
2023-03-20T17:39:24.994Z,62.20
2023-03-20T17:41:53.347Z,59.10
2023-03-20T17:44:22.330Z,57.20
2023-03-20T17:47:17.782Z,72.90
2023-03-20T17:49:47.253Z,81.50
2023-03-20T17:52:17.905Z,94.70
2023-03-20T17:54:48.051Z,91.20
2023-03-20T17:57:32.835Z,97.90
2023-03-20T18:00:23.610Z,97.90
2023-03-20T18:02:52.275Z,86.10
2023-03-20T18:05:20.915Z,96.30
2023-03-20T18:07:49.429Z,106.10
2023-03-20T18:10:25.691Z,67.80
2023-03-20T18:12:53.783Z,64.30
2023-03-20T18:15:24.707Z,69.20
2023-03-20T18:17:53.014Z,61.40
2023-03-20T18:20:30.101Z,63.50
2023-03-20T18:22:58.549Z,62.90
2023-03-20T18:25:27.606Z,62.60
2023-03-20T18:27:58.590Z,60.40
2023-03-20T18:30:35.193Z,60.50
2023-03-20T18:33:03.590Z,58.30
2023-03-20T18:35:32.040Z,57.70
2023-03-20T18:38:01.868Z,57.30
2023-03-20T18:40:35.364Z,58.00
2023-03-20T18:43:03.815Z,55.60
2023-03-20T18:45:33.016Z,53.00
2023-03-20T18:48:21.071Z,49.80
2023-03-20T18:50:51.273Z,46.00
2023-03-20T18:53:20.271Z,47.00
2023-03-20T18:55:48.655Z,42.40
2023-03-20T18:58:22.418Z,41.70
2023-03-20T19:00:51.078Z,41.30
2023-03-20T19:03:23.962Z,51.10
2023-03-20T19:05:58.040Z,66.40
2023-03-20T19:08:26.111Z,72.60
2023-03-20T19:11:01.135Z,60.50
2023-03-20T19:13:29.780Z,65.30
2023-03-20T19:15:58.081Z,83.60
2023-03-20T19:18:28.128Z,86.60
2023-03-20T19:20:57.632Z,59.50
2023-03-20T19:23:29.136Z,53.10
2023-03-20T19:25:57.570Z,46.80
2023-03-20T19:28:38.878Z,45.60
2023-03-20T19:31:10.069Z,40.50
2023-03-20T19:33:39.413Z,41.70
2023-03-20T19:36:15.021Z,46.00
2023-03-20T19:38:43.323Z,47.30
2023-03-20T19:41:11.844Z,50.20
2023-03-20T19:43:52.060Z,46.90
2023-03-20T19:46:38.558Z,68.60
2023-03-20T19:49:19.678Z,47.80
2023-03-20T19:51:49.196Z,49.70
2023-03-20T19:54:17.644Z,51.60
2023-03-20T19:56:46.027Z,67.30
2023-03-20T19:59:17.132Z,63.80
2023-03-20T20:01:46.174Z,58.50
2023-03-20T20:04:15.160Z,50.40
2023-03-20T20:06:46.650Z,57.60
2023-03-20T20:09:15.873Z,52.50
2023-03-20T20:11:44.385Z,55.90
2023-03-20T20:14:14.773Z,53.10
2023-03-20T20:16:44.018Z,54.50
2023-03-20T20:19:12.385Z,52.30
2023-03-20T20:24:31.875Z,56.30
2023-03-20T20:27:16.865Z,60.20
2023-03-20T20:29:51.681Z,57.30
2023-03-20T20:32:23.869Z,56.30
2023-03-20T20:40:32.697Z,58.50
2023-03-20T20:43:02.656Z,64.60
2023-03-20T20:45:43.773Z,57.80
2023-03-20T20:48:12.835Z,54.30
2023-03-20T20:50:43.413Z,58.80
2023-03-20T20:53:14.568Z,61.70
2023-03-20T20:55:43.012Z,58.10
2023-03-20T20:58:12.251Z,55.20
2023-03-20T21:00:51.677Z,54.00
2023-03-20T21:03:21.926Z,53.50
2023-03-20T21:05:52.522Z,54.50
2023-03-20T21:08:20.884Z,58.50
2023-03-20T21:10:55.552Z,54.20
2023-03-20T21:13:24.043Z,54.70
2023-03-20T21:15:59.431Z,52.30
2023-03-20T21:18:28.987Z,51.20
2023-03-20T21:21:08.318Z,55.10
2023-03-20T21:23:36.879Z,59.70
2023-03-20T21:26:08.338Z,56.20
2023-03-20T21:28:37.040Z,53.10
2023-03-20T21:39:07.270Z,46.20
2023-03-20T21:41:38.025Z,45.70
2023-03-20T21:44:06.949Z,40.90
2023-03-20T21:50:17.441Z,45.50
2023-03-20T21:58:36.639Z,40.60
2023-03-20T22:01:29.440Z,41.40
2023-03-20T22:04:26.940Z,41.30
2023-03-20T22:07:18.646Z,40.70
2023-03-20T22:12:49.893Z,45.20
2023-03-20T22:15:29.079Z,43.70
2023-03-20T22:18:19.402Z,45.60
2023-03-20T22:27:01.684Z,42.20
2023-03-20T22:32:47.795Z,41.30
2023-03-20T22:45:11.239Z,40.70
2023-03-20T22:47:41.600Z,41.20
2023-03-20T22:50:11.207Z,39.20
2023-03-20T22:52:48.565Z,39.30
2023-03-20T22:55:18.143Z,40.20
2023-03-20T22:57:59.860Z,38.50
2023-03-20T23:00:39.740Z,42.90
2023-03-20T23:03:22.287Z,43.40
2023-03-20T23:05:51.451Z,40.50
2023-03-20T23:08:19.862Z,40.10
2023-03-20T23:10:49.132Z,38.50
2023-03-20T23:13:22.632Z,38.40
2023-03-20T23:15:51.246Z,37.40
2023-03-20T23:18:19.714Z,39.90
2023-03-20T23:20:49.504Z,39.30
2023-03-20T23:23:19.049Z,42.10
2023-03-20T23:25:47.302Z,37.40
2023-03-20T23:28:15.898Z,41.90
2023-03-20T23:30:51.887Z,44.70
2023-03-20T23:33:25.156Z,48.50
2023-03-20T23:36:13.950Z,56.20
2023-03-20T23:41:13.020Z,62.40
2023-03-20T23:43:43.558Z,62.10
2023-03-20T23:46:14.634Z,58.00
2023-03-20T23:48:44.828Z,52.50
2023-03-20T23:51:12.972Z,42.00
2023-03-20T23:53:43.120Z,41.50
2023-03-20T23:56:12.701Z,38.80
2023-03-20T23:58:59.367Z,39.80
